Time;durP1;ratioP1;P1;durP2;ratioP2;P2;SDS_P1;SDS_P2;PMS_P1;PMS_P2;Temp;Humidity;BMP_temperature;BMP_pressure;BME280_temperature;BME280_humidity;BME280_pressure;Samples;Min_cycle;Max_cycle;Signal;HPM_P1;HPM_P2
2023/10/25 00:00:55;;;;;;;9.80;6.00;;;;;;;5.33;100.00;100333.64;109323;1253;60509;-54
2023/10/25 00:03:24;;;;;;;7.90;5.20;;;;;;;5.38;100.00;100328.17;109281;1252;60101;-55
2023/10/25 00:05:51;;;;;;;9.90;6.30;;;;;;;5.41;100.00;100329.42;109413;1252;75141;-55
2023/10/25 00:08:19;;;;;;;8.70;6.20;;;;;;;5.42;100.00;100339.18;109345;1252;65630;-55
2023/10/25 00:10:46;;;;;;;10.90;7.10;;;;;;;5.35;100.00;100350.48;109244;1253;72374;-56
2023/10/25 00:13:14;;;;;;;13.30;9.10;;;;;;;5.26;100.00;100351.54;109335;1252;61791;-54
2023/10/25 00:15:42;;;;;;;13.60;9.20;;;;;;;5.13;100.00;100343.65;109333;1252;59633;-55
2023/10/25 00:18:09;;;;;;;12.60;7.90;;;;;;;5.00;100.00;100338.48;109317;1253;74641;-55
2023/10/25 00:20:37;;;;;;;14.70;9.20;;;;;;;4.91;100.00;100335.39;109362;1252;66984;-55
2023/10/25 00:23:04;;;;;;;14.50;9.40;;;;;;;4.82;100.00;100333.79;109308;1253;72192;-54
2023/10/25 00:25:34;;;;;;;13.00;7.90;;;;;;;4.76;100.00;100339.56;109008;1252;368488;-55
2023/10/25 00:28:02;;;;;;;12.30;7.90;;;;;;;4.71;100.00;100343.95;109363;1252;60472;-55
2023/10/25 00:30:30;;;;;;;11.80;7.40;;;;;;;4.68;100.00;100343.36;109301;1252;73452;-56
2023/10/25 00:32:57;;;;;;;13.20;9.00;;;;;;;4.68;100.00;100344.27;109293;1253;65870;-55
2023/10/25 00:35:25;;;;;;;12.20;8.60;;;;;;;4.67;100.00;100346.04;109340;1252;72727;-54
2023/10/25 00:37:53;;;;;;;13.20;9.00;;;;;;;4.67;100.00;100345.72;109341;1252;59651;-55
2023/10/25 00:40:21;;;;;;;11.10;7.80;;;;;;;4.68;100.00;100347.91;109352;1252;60114;-55
2023/10/25 00:42:48;;;;;;;12.60;8.30;;;;;;;4.68;100.00;100348.72;109302;1253;75138;-56
2023/10/25 00:45:16;;;;;;;11.00;8.00;;;;;;;4.68;100.00;100348.38;109334;1252;65903;-55
2023/10/25 00:47:44;;;;;;;11.70;8.20;;;;;;;4.70;100.00;100348.90;109325;1252;72751;-55
2023/10/25 00:50:12;;;;;;;12.50;8.10;;;;;;;4.72;100.00;100352.32;109184;1252;60189;-55
2023/10/25 00:52:40;;;;;;;12.90;8.80;;;;;;;4.75;100.00;100353.95;109328;1253;58964;-55
2023/10/25 00:55:08;;;;;;;13.50;8.00;;;;;;;4.79;100.00;100356.48;109303;1253;74606;-55
2023/10/25 00:57:36;;;;;;;12.60;8.70;;;;;;;4.81;100.00;100356.77;109345;1252;65631;-55
2023/10/25 01:00:05;;;;;;;12.30;7.70;;;;;;;4.83;100.00;100361.11;109384;1252;71855;-55
2023/10/25 01:02:32;;;;;;;12.20;8.00;;;;;;;4.83;100.00;100359.49;109425;1252;59322;-55
2023/10/25 01:05:00;;;;;;;12.20;7.70;;;;;;;4.82;100.00;100362.02;109156;1252;59033;-55
2023/10/25 01:07:28;;;;;;;11.10;7.90;;;;;;;4.82;100.00;100357.94;109433;1252;72866;-55
2023/10/25 01:09:55;;;;;;;12.40;8.70;;;;;;;4.80;100.00;100360.85;109374;1252;65705;-54
2023/10/25 01:12:23;;;;;;;11.40;7.30;;;;;;;4.79;100.00;100362.64;109423;1252;71386;-55
2023/10/25 01:14:51;;;;;;;11.70;7.80;;;;;;;4.77;100.00;100364.73;109326;1252;61677;-54
2023/10/25 01:17:18;;;;;;;9.40;6.60;;;;;;;4.77;100.00;100368.73;109405;1253;58883;-54
2023/10/25 01:19:46;;;;;;;10.40;6.80;;;;;;;4.77;100.00;100367.67;109409;1252;74737;-54
2023/10/25 01:22:14;;;;;;;10.00;6.80;;;;;;;4.80;100.00;100367.10;109358;1252;67339;-54
2023/10/25 01:24:43;;;;;;;8.60;6.00;;;;;;;4.83;100.00;100366.83;109334;1252;71423;-54
2023/10/25 01:27:10;;;;;;;8.50;5.30;;;;;;;4.87;100.00;100363.84;109345;1252;61038;-54
2023/10/25 01:29:38;;;;;;;8.20;5.40;;;;;;;4.91;100.00;100364.14;109330;1252;58947;-54
2023/10/25 01:32:06;;;;;;;9.60;5.80;;;;;;;4.95;100.00;100368.55;109402;1252;73398;-54
2023/10/25 01:34:34;;;;;;;9.70;6.00;;;;;;;5.00;100.00;100367.41;109292;1252;67129;-55
2023/10/25 01:37:01;;;;;;;8.30;5.70;;;;;;;5.06;100.00;100363.22;109357;1253;72712;-56
2023/10/25 01:39:29;;;;;;;8.50;5.90;;;;;;;5.12;100.00;100361.48;109183;1252;61698;-54
2023/10/25 01:41:56;;;;;;;9.00;5.80;;;;;;;5.17;100.00;100353.45;109384;1252;59025;-54
2023/10/25 01:44:24;;;;;;;9.30;6.00;;;;;;;5.20;100.00;100353.27;109443;1252;74850;-55
2023/10/25 01:46:52;;;;;;;9.90;5.90;;;;;;;5.25;100.00;100351.65;109358;1252;65802;-56
2023/10/25 01:49:19;;;;;;;9.10;5.60;;;;;;;5.28;100.00;100348.23;109303;1252;72708;-54
2023/10/25 01:51:47;;;;;;;10.10;6.10;;;;;;;5.32;100.00;100346.65;109386;1252;61779;-54
2023/10/25 01:54:15;;;;;;;10.70;6.40;;;;;;;5.37;100.00;100347.06;109336;1252;60107;-54
2023/10/25 01:56:42;;;;;;;9.50;6.10;;;;;;;5.44;100.00;100346.41;109359;1253;74651;-56
2023/10/25 01:59:11;;;;;;;9.00;6.80;;;;;;;5.50;100.00;100353.19;109287;1253;67421;-54
2023/10/25 02:01:38;;;;;;;10.60;6.50;;;;;;;5.54;100.00;100353.98;109214;1252;72779;-54
2023/10/25 02:04:06;;;;;;;8.10;5.00;;;;;;;5.56;100.00;100357.03;109189;1254;60476;-54
2023/10/25 02:06:34;;;;;;;8.30;5.70;;;;;;;5.58;100.00;100359.25;109338;1251;59001;-54
2023/10/25 02:09:02;;;;;;;8.80;5.80;;;;;;;5.59;100.00;100355.41;109264;1253;74702;-54
2023/10/25 02:11:30;;;;;;;10.10;6.20;;;;;;;5.57;100.00;100352.62;109457;1252;65797;-54
2023/10/25 02:13:58;;;;;;;8.40;5.80;;;;;;;5.55;100.00;100348.70;109416;1253;71448;-54
2023/10/25 02:16:26;;;;;;;8.70;5.30;;;;;;;5.52;100.00;100347.49;109243;1252;60384;-54
2023/10/25 02:18:54;;;;;;;9.70;5.80;;;;;;;5.47;100.00;100351.55;109368;1253;60123;-55
2023/10/25 02:21:21;;;;;;;7.50;4.80;;;;;;;5.43;100.00;100350.38;109196;1252;72809;-54
2023/10/25 02:23:49;;;;;;;6.80;4.80;;;;;;;5.41;100.00;100350.52;109318;1252;65746;-54
2023/10/25 02:26:17;;;;;;;7.60;5.00;;;;;;;5.39;100.00;100349.73;109321;1252;72705;-54
2023/10/25 02:28:44;;;;;;;7.80;5.10;;;;;;;5.39;100.00;100351.67;109357;1252;59824;-56
2023/10/25 02:31:12;;;;;;;13.40;8.70;;;;;;;5.34;100.00;100357.98;109311;1252;58902;-54
2023/10/25 02:33:41;;;;;;;17.10;11.10;;;;;;;5.24;100.00;100360.11;109323;1252;74767;-55
2023/10/25 02:36:09;;;;;;;15.90;10.40;;;;;;;5.10;100.00;100361.70;109289;1252;66077;-54
2023/10/25 02:38:37;;;;;;;15.40;10.00;;;;;;;4.96;100.00;100359.52;109174;1253;72774;-55
2023/10/25 02:41:04;;;;;;;15.70;9.40;;;;;;;4.85;100.00;100359.73;109363;1252;60679;-54
2023/10/25 02:43:34;;;;;;;14.90;10.60;;;;;;;4.70;100.00;100355.20;109462;1252;59000;-54
2023/10/25 02:46:02;;;;;;;15.60;9.70;;;;;;;4.57;100.00;100354.34;109345;1253;74715;-54
2023/10/25 02:48:30;;;;;;;13.20;8.50;;;;;;;4.47;100.00;100352.36;109320;1252;66955;-55
2023/10/25 02:51:02;;;;;;;13.60;8.50;;;;;;;4.40;100.00;100349.55;109337;1252;71411;-54
2023/10/25 02:53:29;;;;;;;13.40;8.40;;;;;;;4.33;100.00;100349.91;109331;1253;62154;-54
2023/10/25 02:56:01;;;;;;;14.20;9.40;;;;;;;4.23;100.00;100352.56;109472;1252;60017;-54
2023/10/25 02:58:28;;;;;;;;;;;;;;;4.10;100.00;100355.90;109412;1253;73756;-54
2023/10/25 03:00:56;;;;;;;14.20;9.10;;;;;;;4.00;100.00;100352.88;109375;1253;65622;-54
2023/10/25 03:03:26;;;;;;;14.80;10.00;;;;;;;3.95;100.00;100350.45;109373;1252;71404;-54
2023/10/25 03:05:53;;;;;;;14.10;8.50;;;;;;;3.90;100.00;100350.13;109409;1252;59669;-54
2023/10/25 03:08:21;;;;;;;14.00;9.20;;;;;;;3.85;100.00;100344.95;109405;1252;58898;-54
2023/10/25 03:10:49;;;;;;;12.90;9.60;;;;;;;3.81;100.00;100337.95;109372;1252;74698;-54
2023/10/25 03:13:16;;;;;;;18.20;11.30;;;;;;;3.79;100.00;100336.52;109328;1252;65334;-54
2023/10/25 03:15:44;;;;;;;16.50;12.70;;;;;;;3.77;100.00;100342.42;109424;1252;71437;-54
2023/10/25 03:18:12;;;;;;;21.70;12.70;;;;;;;3.72;100.00;100347.17;109421;1253;61002;-54
2023/10/25 03:20:39;;;;;;;17.30;11.90;;;;;;;3.65;100.00;100353.03;109439;1252;58988;-54
2023/10/25 03:23:07;;;;;;;17.20;12.50;;;;;;;3.60;100.00;100351.94;109388;1252;73896;-54
2023/10/25 03:25:34;;;;;;;16.60;10.70;;;;;;;3.54;100.00;100353.83;109428;1252;64671;-54
2023/10/25 03:28:02;;;;;;;16.30;11.00;;;;;;;3.52;100.00;100356.16;109428;1252;71863;-54
2023/10/25 03:30:30;;;;;;;13.60;10.20;;;;;;;3.41;100.00;100357.27;109165;1252;60949;-54
2023/10/25 03:32:58;;;;;;;17.30;11.40;;;;;;;3.31;100.00;100362.98;109132;1252;59002;-56
2023/10/25 03:35:27;;;;;;;16.50;10.60;;;;;;;3.21;100.00;100361.91;109091;1253;74742;-54
2023/10/25 03:37:55;;;;;;;13.50;9.70;;;;;;;3.11;100.00;100362.90;109118;1253;67224;-54
2023/10/25 03:40:22;;;;;;;13.80;9.40;;;;;;;3.03;100.00;100362.39;109208;1253;72687;-54
2023/10/25 03:42:50;;;;;;;13.40;9.40;;;;;;;2.95;100.00;100369.10;109066;1253;59337;-55
2023/10/25 03:45:18;;;;;;;20.40;9.40;;;;;;;2.89;100.00;100372.73;109179;1252;59210;-54
2023/10/25 03:47:46;;;;;;;12.00;8.60;;;;;;;2.85;100.00;100377.39;109215;1253;74647;-54
2023/10/25 03:50:16;;;;;;;11.20;7.70;;;;;;;2.81;100.00;100372.02;109308;1253;67092;-54
2023/10/25 03:52:43;;;;;;;9.60;7.60;;;;;;;2.77;100.00;100367.39;109284;1252;71869;-54
2023/10/25 03:55:11;;;;;;;12.40;8.70;;;;;;;2.76;100.00;100372.29;109236;1253;59350;-54
2023/10/25 03:57:39;;;;;;;11.30;8.10;;;;;;;2.78;100.00;100380.88;109264;1253;59021;-54
2023/10/25 04:00:09;;;;;;;12.80;8.40;;;;;;;2.83;100.00;100380.48;109329;1253;74725;-54
2023/10/25 04:02:40;;;;;;;11.50;8.10;;;;;;;2.91;100.00;100383.92;109159;1253;65489;-55
2023/10/25 04:05:07;;;;;;;14.50;7.90;;;;;;;3.03;100.00;100390.93;109201;1253;71433;-54
2023/10/25 04:07:35;;;;;;;12.90;8.20;;;;;;;3.15;100.00;100395.71;109305;1253;60158;-54
2023/10/25 04:10:03;;;;;;;11.90;8.70;;;;;;;3.26;100.00;100392.41;109257;1253;60166;-54
2023/10/25 04:12:31;;;;;;;16.00;10.70;;;;;;;3.33;100.00;100401.59;109208;1253;73758;-54
2023/10/25 04:14:58;;;;;;;14.10;10.50;;;;;;;3.36;100.00;100413.20;109138;1253;65736;-54
2023/10/25 04:17:26;;;;;;;12.00;9.30;;;;;;;3.40;100.00;100415.45;109210;1253;70475;-54
2023/10/25 04:19:53;;;;;;;12.20;8.70;;;;;;;3.46;100.00;100421.79;109357;1252;61691;-54
2023/10/25 04:22:21;;;;;;;14.90;10.20;;;;;;;3.54;100.00;100425.34;109409;1252;59152;-54
2023/10/25 04:24:48;;;;;;;13.30;10.20;;;;;;;3.63;100.00;100430.22;109263;1252;74730;-55
2023/10/25 04:27:16;;;;;;;11.40;8.20;;;;;;;3.74;100.00;100436.19;109327;1252;67640;-54
2023/10/25 04:29:44;;;;;;;12.90;9.00;;;;;;;3.85;100.00;100442.77;109423;1252;71602;-54
2023/10/25 04:32:11;;;;;;;12.20;8.20;;;;;;;4.00;100.00;100448.48;109359;1252;60481;-54
2023/10/25 04:34:39;;;;;;;12.70;8.50;;;;;;;4.15;100.00;100451.79;109403;1252;58887;-54
2023/10/25 04:37:07;;;;;;;24.90;10.00;;;;;;;4.30;100.00;100452.63;109340;1252;75272;-55
2023/10/25 04:39:34;;;;;;;14.30;10.70;;;;;;;4.43;100.00;100453.41;109423;1253;66111;-54
2023/10/25 04:42:02;;;;;;;12.00;8.90;;;;;;;4.50;100.00;100450.06;109494;1252;72700;-54
2023/10/25 04:44:31;;;;;;;12.60;9.20;;;;;;;4.54;100.00;100449.98;109367;1252;61782;-54
2023/10/25 04:46:59;;;;;;;12.90;9.60;;;;;;;4.59;100.00;100446.92;109435;1252;59055;-56
2023/10/25 04:49:28;;;;;;;21.50;11.00;;;;;;;4.61;100.00;100447.59;109408;1252;73402;-54
2023/10/25 04:51:56;;;;;;;17.00;10.60;;;;;;;4.63;100.00;100448.11;109454;1253;66518;-54
2023/10/25 04:54:23;;;;;;;17.60;10.60;;;;;;;4.66;100.00;100450.67;109325;1252;72932;-54
2023/10/25 04:56:51;;;;;;;19.20;11.50;;;;;;;4.66;100.00;100452.18;109309;1254;60805;-55
2023/10/25 04:59:19;;;;;;;18.20;11.80;;;;;;;4.70;100.00;100455.80;109240;1253;60133;-54
2023/10/25 05:01:46;;;;;;;20.00;11.40;;;;;;;4.77;100.00;100462.40;109495;1252;72539;-54
2023/10/25 05:04:14;;;;;;;17.60;8.30;;;;;;;4.84;100.00;100467.41;109308;1253;66967;-54
2023/10/25 05:06:42;;;;;;;11.70;6.60;;;;;;;4.92;100.00;100468.22;109412;1253;72693;-54
2023/10/25 05:09:10;;;;;;;9.90;7.00;;;;;;;4.99;100.00;100466.67;109330;1252;60455;-55
2023/10/25 05:11:38;;;;;;;9.30;6.50;;;;;;;5.07;100.00;100465.77;109440;1253;60509;-54
2023/10/25 05:14:06;;;;;;;9.10;6.10;;;;;;;5.15;100.00;100472.84;109351;1253;74821;-55
2023/10/25 05:16:34;;;;;;;12.90;8.10;;;;;;;5.22;100.00;100474.28;109446;1253;64992;-54
2023/10/25 05:19:02;;;;;;;11.90;7.90;;;;;;;5.31;100.00;100468.69;109393;1253;72728;-54
2023/10/25 05:21:30;;;;;;;10.60;6.50;;;;;;;5.47;100.00;100476.04;109400;1253;60929;-55
2023/10/25 05:23:58;;;;;;;11.00;6.90;;;;;;;5.64;100.00;100485.60;109196;1252;59488;-54
2023/10/25 05:26:26;;;;;;;10.70;7.20;;;;;;;5.81;100.00;100481.60;109327;1252;74655;-54
2023/10/25 05:28:54;;;;;;;10.20;6.90;;;;;;;5.95;100.00;100479.98;109417;1252;65716;-55
2023/10/25 05:31:21;;;;;;;11.80;7.70;;;;;;;6.05;100.00;100483.08;109290;1252;71998;-55
2023/10/25 05:33:49;;;;;;;11.60;8.10;;;;;;;6.17;100.00;100480.29;109130;1253;60935;-54
2023/10/25 05:36:17;;;;;;;8.30;6.10;;;;;;;6.27;100.00;100481.29;109291;1253;59564;-55
2023/10/25 05:38:45;;;;;;;9.50;6.50;;;;;;;6.39;100.00;100473.60;109377;1252;72844;-54
2023/10/25 05:41:16;;;;;;;8.80;6.20;;;;;;;6.50;100.00;100474.92;109315;1252;65845;-54
2023/10/25 05:43:43;;;;;;;10.30;6.50;;;;;;;6.59;100.00;100475.23;109413;1252;72715;-54
2023/10/25 05:46:11;;;;;;;10.70;7.70;;;;;;;6.70;100.00;100467.05;109229;1252;59380;-54
2023/10/25 05:48:39;;;;;;;9.80;6.30;;;;;;;6.85;100.00;100466.30;109295;1252;60049;-54
2023/10/25 05:51:07;;;;;;;8.40;6.00;;;;;;;6.92;100.00;100466.30;109328;1252;73349;-54
2023/10/25 05:53:35;;;;;;;10.00;5.60;;;;;;;6.96;100.00;100468.27;109306;1253;65848;-55
2023/10/25 05:56:26;;;;;;;10.40;6.80;;;;;;;7.03;100.00;100465.13;109408;1253;71395;-54
2023/10/25 05:58:54;;;;;;;11.30;8.10;;;;;;;7.10;100.00;100468.40;109309;1252;61735;-55
2023/10/25 06:01:35;;;;;;;9.40;6.20;;;;;;;7.19;100.00;100465.41;109417;1252;60619;-55
2023/10/25 06:04:04;;;;;;;10.80;7.20;;;;;;;7.22;100.00;100459.89;109147;1252;73547;-55
2023/10/25 06:06:32;;;;;;;11.10;7.60;;;;;;;7.22;100.00;100460.96;109371;1253;67125;-54
2023/10/25 06:09:00;;;;;;;13.40;8.20;;;;;;;7.19;100.00;100459.43;109246;1252;72251;-55
2023/10/25 06:11:28;;;;;;;17.30;9.10;;;;;;;7.12;100.00;100451.63;109308;1252;60482;-55
2023/10/25 06:13:56;;;;;;;14.80;9.80;;;;;;;7.05;100.00;100442.95;109420;1253;60092;-55
2023/10/25 06:16:23;;;;;;;17.50;11.20;;;;;;;7.00;100.00;100441.05;109407;1252;74732;-54
2023/10/25 06:18:51;;;;;;;17.80;12.10;;;;;;;6.99;100.00;100442.05;109388;1254;66909;-54
2023/10/25 06:21:18;;;;;;;24.90;13.10;;;;;;;7.04;100.00;100450.81;109416;1252;71438;-55
2023/10/25 06:23:46;;;;;;;21.20;14.30;;;;;;;7.10;100.00;100455.02;109443;1253;60517;-54
2023/10/25 06:26:14;;;;;;;20.80;16.30;;;;;;;7.11;100.00;100455.86;109414;1252;59187;-55
2023/10/25 06:28:41;;;;;;;14.30;10.70;;;;;;;7.17;100.00;100453.91;109421;1252;74651;-55
2023/10/25 06:31:13;;;;;;;13.60;9.80;;;;;;;7.19;100.00;100460.98;109320;1253;65639;-56
2023/10/25 06:33:42;;;;;;;18.60;11.10;;;;;;;7.18;100.00;100463.16;109410;1252;71437;-55
2023/10/25 06:36:10;;;;;;;18.80;12.40;;;;;;;7.15;100.00;100453.73;109402;1253;58988;-56
2023/10/25 06:38:38;;;;;;;15.70;10.70;;;;;;;7.17;100.00;100452.20;109252;1254;60070;-56
2023/10/25 06:41:16;;;;;;;15.00;10.90;;;;;;;7.20;100.00;100453.64;109313;1253;74703;-56
2023/10/25 06:43:44;;;;;;;17.20;12.10;;;;;;;7.20;100.00;100456.66;109420;1253;65595;-56
2023/10/25 06:46:12;;;;;;;20.30;11.90;;;;;;;7.25;100.00;100466.77;109288;1253;72762;-57
2023/10/25 06:48:40;;;;;;;14.70;11.00;;;;;;;7.33;100.00;100467.68;109436;1253;60077;-56
2023/10/25 06:51:08;;;;;;;17.10;11.50;;;;;;;7.43;100.00;100463.71;109420;1252;60111;-56
2023/10/25 06:53:37;;;;;;;17.90;11.80;;;;;;;7.50;100.00;100462.23;109305;1253;74749;-55
2023/10/25 06:56:05;;;;;;;22.10;12.80;;;;;;;7.53;100.00;100463.14;109389;1253;66232;-55
2023/10/25 06:58:33;;;;;;;18.20;11.60;;;;;;;7.56;100.00;100456.48;109379;1253;73241;-54
2023/10/25 07:01:01;;;;;;;16.60;12.40;;;;;;;7.61;100.00;100458.92;109435;1253;60140;-54
2023/10/25 07:03:35;;;;;;;18.30;11.80;;;;;;;7.67;100.00;100457.89;109181;1253;60436;-54
2023/10/25 07:06:04;;;;;;;18.10;11.40;;;;;;;7.71;100.00;100461.70;109313;1254;74732;-56
2023/10/25 07:08:31;;;;;;;15.60;10.60;;;;;;;7.74;100.00;100455.98;109311;1253;65649;-55
2023/10/25 07:10:59;;;;;;;15.00;11.10;;;;;;;7.70;100.00;100455.21;109292;1257;72712;-54
2023/10/25 07:13:27;;;;;;;13.80;9.70;;;;;;;7.69;100.00;100458.96;109305;1252;59184;-54
2023/10/25 07:15:54;;;;;;;18.90;10.30;;;;;;;7.70;100.00;100453.44;109272;1253;59007;-54
2023/10/25 07:18:23;;;;;;;15.40;10.00;;;;;;;7.69;100.00;100446.27;109377;1252;75013;-55
2023/10/25 07:20:50;;;;;;;11.00;8.20;;;;;;;7.72;100.00;100437.84;109430;1252;67498;-55
2023/10/25 07:23:18;;;;;;;12.40;9.20;;;;;;;7.77;100.00;100431.21;109295;1254;72717;-55
2023/10/25 07:25:46;;;;;;;14.90;9.90;;;;;;;7.81;100.00;100430.55;109307;1253;60361;-54
2023/10/25 07:28:14;;;;;;;13.40;9.80;;;;;;;7.86;100.00;100435.70;109430;1254;59224;-54
2023/10/25 07:30:42;;;;;;;13.20;9.90;;;;;;;7.88;100.00;100437.16;109384;1253;74710;-54
2023/10/25 07:33:10;;;;;;;12.40;7.90;;;;;;;7.89;100.00;100435.20;109315;1252;66970;-54
2023/10/25 07:35:40;;;;;;;10.50;8.00;;;;;;;7.87;100.00;100430.23;109343;1253;74883;-54
2023/10/25 07:38:07;;;;;;;9.50;7.70;;;;;;;7.85;100.00;100427.55;109433;1253;59821;-54
2023/10/25 07:40:38;;;;;;;10.50;8.20;;;;;;;7.85;100.00;100431.95;109392;1253;59000;-55
2023/10/25 07:43:06;;;;;;;11.00;8.10;;;;;;;7.90;100.00;100439.42;109398;1253;73910;-54
2023/10/25 07:45:34;;;;;;;10.20;6.80;;;;;;;7.98;100.00;100437.57;109394;1252;65932;-54
2023/10/25 07:48:02;;;;;;;11.70;7.90;;;;;;;8.07;100.00;100438.19;109395;1252;74526;-54
2023/10/25 07:50:31;;;;;;;11.10;8.40;;;;;;;8.16;100.00;100443.48;109383;1256;59909;-56
2023/10/25 07:52:58;;;;;;;11.20;8.80;;;;;;;8.24;100.00;100449.14;109449;1253;59137;-54
2023/10/25 07:55:26;;;;;;;11.40;9.00;;;;;;;8.31;100.00;100445.84;109447;1252;74707;-54
2023/10/25 07:58:14;;;;;;;11.30;8.50;;;;;;;8.38;100.00;100447.54;109381;1252;65755;-56
2023/10/25 08:00:46;;;;;;;12.40;8.90;;;;;;;8.45;100.00;100444.02;109448;1253;72684;-54
2023/10/25 08:03:16;;;;;;;13.40;10.20;;;;;;;8.47;100.00;100430.95;109431;1252;60058;-54
2023/10/25 08:05:45;;;;;;;12.30;9.80;;;;;;;8.47;100.00;100427.27;109460;1254;60358;-54
2023/10/25 08:08:12;;;;;;;10.60;7.50;;;;;;;8.48;100.00;100427.90;109273;1252;73768;-55
2023/10/25 08:10:40;;;;;;;9.10;7.80;;;;;;;8.49;100.00;100422.97;109396;1254;66785;-54
2023/10/25 08:13:08;;;;;;;10.60;8.00;;;;;;;8.51;100.00;100418.89;109438;1253;73993;-54
2023/10/25 08:15:36;;;;;;;9.80;8.50;;;;;;;8.55;100.00;100416.81;109416;1253;61904;-54
2023/10/25 08:18:04;;;;;;;9.80;7.50;;;;;;;8.62;100.00;100421.45;109418;1251;60086;-54
2023/10/25 08:20:36;;;;;;;10.50;7.60;;;;;;;8.71;100.00;100426.84;109451;1253;74515;-53
2023/10/25 08:23:04;;;;;;;11.10;9.50;;;;;;;8.81;100.00;100431.63;109298;1257;64956;-56
2023/10/25 08:25:35;;;;;;;10.80;8.60;;;;;;;8.89;100.00;100424.04;109444;1254;72626;-53
2023/10/25 08:28:03;;;;;;;9.80;8.20;;;;;;;8.97;100.00;100415.97;109389;1252;60711;-54
2023/10/25 08:30:30;;;;;;;9.20;7.70;;;;;;;9.06;100.00;100411.59;109445;1254;58931;-54
2023/10/25 08:32:58;;;;;;;11.00;7.70;;;;;;;9.19;100.00;100410.77;109412;1253;73475;-54
2023/10/25 08:35:26;;;;;;;10.80;7.30;;;;;;;9.32;100.00;100410.09;109310;1253;69341;-54
2023/10/25 08:37:54;;;;;;;8.20;6.80;;;;;;;9.41;100.00;100407.45;109329;1253;72469;-54
2023/10/25 08:40:24;;;;;;;9.00;7.90;;;;;;;9.52;100.00;100404.52;109434;1253;63130;-54
2023/10/25 08:42:52;;;;;;;9.40;7.10;;;;;;;9.66;100.00;100397.71;109427;1253;60831;-54
2023/10/25 08:45:23;;;;;;;8.40;6.40;;;;;;;9.77;100.00;100396.27;109416;1253;72947;-54
2023/10/25 08:47:51;;;;;;;8.00;6.40;;;;;;;9.92;100.00;100394.77;109369;1252;65597;-54
2023/10/25 08:50:20;;;;;;;8.70;6.40;;;;;;;10.10;100.00;100387.47;109358;1253;73986;-55
2023/10/25 08:52:49;;;;;;;8.10;6.90;;;;;;;10.26;100.00;100379.20;109388;1253;58951;-54
2023/10/25 08:55:19;;;;;;;8.00;6.70;;;;;;;10.38;100.00;100373.63;109371;1257;58931;-54
2023/10/25 08:57:54;;;;;;;7.20;5.90;;;;;;;10.51;100.00;100370.27;109390;1253;74966;-57
2023/10/25 09:00:23;;;;;;;6.90;5.60;;;;;;;10.73;100.00;100369.89;109432;1252;67429;-54
2023/10/25 09:03:05;;;;;;;8.20;6.00;;;;;;;10.87;100.00;100359.52;109462;1253;72718;-55
2023/10/25 09:05:41;;;;;;;8.10;6.50;;;;;;;10.94;100.00;100355.39;109425;1253;60631;-54
2023/10/25 09:08:15;;;;;;;8.40;5.80;;;;;;;11.05;100.00;100355.90;109449;1254;58967;-55
2023/10/25 09:10:43;;;;;;;8.10;6.00;;;;;;;11.07;100.00;100345.17;109405;1253;74689;-54
2023/10/25 09:13:13;;;;;;;8.90;6.30;;;;;;;11.02;100.00;100339.55;109473;1254;65199;-54
2023/10/25 09:15:41;;;;;;;8.50;5.80;;;;;;;11.05;100.00;100340.18;109397;1253;72524;-55
2023/10/25 09:18:09;;;;;;;8.00;5.60;;;;;;;11.14;100.00;100334.65;109400;1254;59879;-55
2023/10/25 09:20:37;;;;;;;7.60;5.50;;;;;;;11.16;100.00;100324.56;109317;1253;60074;-54
2023/10/25 09:23:11;;;;;;;7.20;5.20;;;;;;;11.19;100.00;100321.34;109310;1254;74635;-54
2023/10/25 09:25:39;;;;;;;6.50;5.10;;;;;;;11.22;100.00;100310.85;109374;1254;66957;-55
2023/10/25 09:28:29;;;;;;;7.90;6.20;;;;;;;11.24;100.00;100302.48;109288;1254;72645;-55
2023/10/25 09:30:58;;;;;;;11.40;6.10;;;;;;;11.18;100.00;100289.21;109259;1253;58911;-57
2023/10/25 09:33:29;;;;;;;8.30;6.00;;;;;;;11.13;100.00;100275.08;109267;1254;60063;-54
2023/10/25 09:35:57;;;;;;;6.90;5.50;;;;;;;11.14;100.00;100270.11;109281;1254;75671;-55
2023/10/25 09:38:25;;;;;;;7.30;5.60;;;;;;;11.15;100.00;100256.61;109419;1253;68961;-54
2023/10/25 09:40:52;;;;;;;7.00;5.30;;;;;;;11.17;100.00;100252.80;109293;1252;71778;-56
2023/10/25 09:43:20;;;;;;;8.70;5.30;;;;;;;11.25;100.00;100248.62;109384;1254;59701;-57
2023/10/25 09:45:52;;;;;;;6.30;5.10;;;;;;;11.32;100.00;100239.41;109419;1253;60178;-57
2023/10/25 09:48:20;;;;;;;7.50;5.10;;;;;;;11.40;100.00;100229.99;109389;1253;74998;-56
2023/10/25 09:51:12;;;;;;;6.60;5.20;;;;;;;11.50;100.00;100231.89;109363;1254;65856;-58
2023/10/25 09:54:12;;;;;;;;;;;;;;;11.53;100.00;100223.71;109407;1253;72470;-55
2023/10/25 09:56:40;;;;;;;7.50;5.80;;;;;;;11.61;100.00;100218.15;109040;1263;59881;-55
2023/10/25 09:59:10;;;;;;;6.70;4.30;;;;;;;11.71;100.00;100210.94;109395;1252;61153;-55
2023/10/25 10:01:38;;;;;;;5.00;4.30;;;;;;;11.70;100.00;100201.73;109388;1254;74775;-57
2023/10/25 10:04:26;;;;;;;8.60;4.40;;;;;;;11.60;100.00;100202.54;109213;1253;65758;-55
2023/10/25 10:07:17;;;;;;;5.40;4.50;;;;;;;11.51;100.00;100194.90;109443;1253;71874;-55
2023/10/25 10:09:52;;;;;;;6.30;4.80;;;;;;;11.59;100.00;100184.51;109446;1250;59370;-54
2023/10/25 10:12:20;;;;;;;8.70;4.90;;;;;;;11.75;100.00;100179.22;109419;1252;60064;-58
2023/10/25 10:14:48;;;;;;;7.80;4.30;;;;;;;11.91;100.00;100173.91;109295;1253;73276;-55
2023/10/25 10:17:16;;;;;;;7.40;4.60;;;;;;;12.04;100.00;100171.92;109248;1257;66950;-56
2023/10/25 10:19:46;;;;;;;6.40;4.90;;;;;;;12.13;100.00;100175.95;109248;1254;72730;-55
2023/10/25 10:22:18;;;;;;;5.40;4.40;;;;;;;12.22;100.00;100174.13;109322;1254;59874;-58
2023/10/25 10:24:53;;;;;;;7.80;4.70;;;;;;;12.37;100.00;100167.70;109448;1252;60560;-55
2023/10/25 10:27:40;;;;;;;6.30;5.00;;;;;;;12.49;100.00;100163.39;109360;1253;74935;-55
2023/10/25 10:30:40;;;;;;;5.60;4.20;;;;;;;12.53;100.00;100158.14;109382;1253;67421;-59
2023/10/25 10:33:12;;;;;;;6.60;4.40;;;;;;;12.60;100.00;100160.04;109009;1253;74593;-56
2023/10/25 10:35:46;;;;;;;10.30;4.50;;;;;;;12.66;100.00;100157.46;109383;1253;58990;-55
2023/10/25 10:38:14;;;;;;;6.50;5.30;;;;;;;12.72;100.00;100156.35;109288;1252;59108;-56
2023/10/25 10:40:42;;;;;;;4.00;2.90;;;;;;;12.79;100.00;100155.73;109273;1252;76752;-56
2023/10/25 10:43:09;;;;;;;5.00;2.90;;;;;;;12.75;100.00;100154.30;109389;1254;66991;-55
2023/10/25 10:45:37;;;;;;;5.00;3.00;;;;;;;12.68;100.00;100153.41;109337;1253;72690;-55
2023/10/25 10:48:26;;;;;;;4.00;2.70;;;;;;;12.66;100.00;100153.98;109178;1257;60036;-57
2023/10/25 10:50:53;;;;;;;5.00;3.20;;;;;;;12.63;100.00;100144.88;109256;1251;59913;-57
2023/10/25 10:53:21;;;;;;;5.90;3.10;;;;;;;12.58;100.00;100141.08;109069;1252;77232;-55
2023/10/25 10:55:49;;;;;;;4.30;3.40;;;;;;;12.50;100.00;100133.64;109332;1252;65557;-55
2023/10/25 10:58:17;;;;;;;5.10;3.50;;;;;;;12.46;100.00;100130.04;109222;1254;73982;-58
2023/10/25 11:00:45;;;;;;;4.30;3.30;;;;;;;12.40;100.00;100125.09;109202;1253;60940;-55
2023/10/25 11:03:13;;;;;;;6.00;3.90;;;;;;;12.44;100.00;100123.16;109381;1252;60092;-57
2023/10/25 11:05:41;;;;;;;7.30;5.00;;;;;;;12.47;100.00;100121.33;109194;1254;75394;-57
2023/10/25 11:08:13;;;;;;;4.90;3.80;;;;;;;12.46;100.00;100110.38;109307;1254;65402;-57
2023/10/25 11:10:42;;;;;;;6.20;3.90;;;;;;;12.41;100.00;100102.73;109373;1253;71973;-55
2023/10/25 11:13:10;;;;;;;6.20;4.30;;;;;;;12.33;100.00;100100.18;109354;1253;59833;-54
2023/10/25 11:15:38;;;;;;;6.30;4.20;;;;;;;12.27;100.00;100100.69;109505;1250;59820;-59
2023/10/25 11:18:08;;;;;;;6.70;4.60;;;;;;;12.24;100.00;100095.49;109520;1251;74636;-54